sensor_id;sensor_type;location;lat;lon;timestamp;pressure;altitude;pressure_sealevel;temperature;humidity
48774;BME280;34576;0.000;0.000;2023-04-20T00:02:31;96451.41;;;16.97;65.64
48774;BME280;34576;0.000;0.000;2023-04-20T00:09:31;96428.84;;;16.95;66.37
48774;BME280;34576;0.000;0.000;2023-04-20T00:16:32;96420.84;;;17.00;66.35
48774;BME280;34576;0.000;0.000;2023-04-20T00:23:32;96411.25;;;17.04;63.96
48774;BME280;34576;0.000;0.000;2023-04-20T00:30:32;96401.97;;;17.01;65.50
48774;BME280;34576;0.000;0.000;2023-04-20T00:37:33;96386.88;;;16.91;66.95
48774;BME280;34576;0.000;0.000;2023-04-20T00:44:33;96369.63;;;16.89;67.30
48774;BME280;34576;0.000;0.000;2023-04-20T00:51:34;96365.09;;;16.89;67.33
48774;BME280;34576;0.000;0.000;2023-04-20T00:58:34;96357.13;;;16.89;67.65
48774;BME280;34576;0.000;0.000;2023-04-20T01:05:35;96355.25;;;16.90;67.58
48774;BME280;34576;0.000;0.000;2023-04-20T01:12:35;96339.56;;;16.94;67.42
48774;BME280;34576;0.000;0.000;2023-04-20T01:19:36;96333.47;;;16.93;65.57
48774;BME280;34576;0.000;0.000;2023-04-20T01:26:37;96323.38;;;16.90;67.13
48774;BME280;34576;0.000;0.000;2023-04-20T01:33:37;96324.13;;;16.96;66.77
48774;BME280;34576;0.000;0.000;2023-04-20T01:40:38;96314.06;;;16.93;67.68
48774;BME280;34576;0.000;0.000;2023-04-20T01:47:38;96308.69;;;17.03;65.10
48774;BME280;34576;0.000;0.000;2023-04-20T01:54:40;96302.34;;;16.99;64.06
48774;BME280;34576;0.000;0.000;2023-04-20T02:01:40;96307.13;;;16.97;68.72
48774;BME280;34576;0.000;0.000;2023-04-20T02:08:41;96294.91;;;16.96;68.66
48774;BME280;34576;0.000;0.000;2023-04-20T02:15:41;96275.44;;;17.05;68.56
48774;BME280;34576;0.000;0.000;2023-04-20T02:22:44;96260.44;;;17.20;68.43
48774;BME280;34576;0.000;0.000;2023-04-20T02:29:44;96250.56;;;17.25;68.27
48774;BME280;34576;0.000;0.000;2023-04-20T02:36:47;96239.09;;;17.30;68.53
48774;BME280;34576;0.000;0.000;2023-04-20T02:43:47;96240.66;;;17.31;68.73
48774;BME280;34576;0.000;0.000;2023-04-20T02:50:48;96234.78;;;17.34;68.58
48774;BME280;34576;0.000;0.000;2023-04-20T02:57:52;96234.72;;;17.39;68.80
48774;BME280;34576;0.000;0.000;2023-04-20T03:04:55;96239.19;;;17.44;68.66
48774;BME280;34576;0.000;0.000;2023-04-20T03:11:57;96227.50;;;17.45;69.01
48774;BME280;34576;0.000;0.000;2023-04-20T03:19:14;96221.13;;;17.46;69.23
48774;BME280;34576;0.000;0.000;2023-04-20T03:26:14;96220.31;;;17.46;69.54
48774;BME280;34576;0.000;0.000;2023-04-20T03:33:37;96210.47;;;17.46;69.44
48774;BME280;34576;0.000;0.000;2023-04-20T03:40:38;96209.66;;;17.46;69.52
48774;BME280;34576;0.000;0.000;2023-04-20T03:47:39;96208.88;;;17.45;69.94
48774;BME280;34576;0.000;0.000;2023-04-20T03:54:39;96201.19;;;17.43;69.86
48774;BME280;34576;0.000;0.000;2023-04-20T04:01:40;96189.25;;;17.41;69.87
48774;BME280;34576;0.000;0.000;2023-04-20T04:08:41;96194.84;;;17.39;69.80
48774;BME280;34576;0.000;0.000;2023-04-20T04:15:42;96193.25;;;17.38;69.67
48774;BME280;34576;0.000;0.000;2023-04-20T04:22:46;96188.75;;;17.39;70.55
48774;BME280;34576;0.000;0.000;2023-04-20T04:30:01;96191.69;;;17.37;70.72
48774;BME280;34576;0.000;0.000;2023-04-20T04:37:02;96188.06;;;17.52;71.05
48774;BME280;34576;0.000;0.000;2023-04-20T04:44:14;96185.97;;;15.71;58.98
48774;BME280;34576;0.000;0.000;2023-04-20T04:51:16;96196.34;;;13.72;55.29
48774;BME280;34576;0.000;0.000;2023-04-20T04:58:16;96203.72;;;13.60;54.21
48774;BME280;34576;0.000;0.000;2023-04-20T05:05:16;96195.00;;;13.17;53.50
48774;BME280;34576;0.000;0.000;2023-04-20T05:12:16;96197.06;;;13.04;53.96
48774;BME280;34576;0.000;0.000;2023-04-20T05:19:18;96191.75;;;15.08;52.95
48774;BME280;34576;0.000;0.000;2023-04-20T05:26:18;96190.88;;;16.04;54.94
48774;BME280;34576;0.000;0.000;2023-04-20T05:33:19;96180.13;;;16.30;55.88
48774;BME280;34576;0.000;0.000;2023-04-20T05:40:19;96180.03;;;16.40;57.18
48774;BME280;34576;0.000;0.000;2023-04-20T05:47:19;96180.50;;;16.47;57.62
48774;BME280;34576;0.000;0.000;2023-04-20T05:54:20;96184.47;;;16.50;58.63
48774;BME280;34576;0.000;0.000;2023-04-20T06:01:21;96181.00;;;16.54;58.67
48774;BME280;34576;0.000;0.000;2023-04-20T06:08:21;96177.81;;;16.58;59.43
48774;BME280;34576;0.000;0.000;2023-04-20T06:15:22;96186.81;;;16.62;60.94
48774;BME280;34576;0.000;0.000;2023-04-20T06:22:22;96176.19;;;16.62;61.09
48774;BME280;34576;0.000;0.000;2023-04-20T06:29:22;96170.88;;;16.62;61.16
48774;BME280;34576;0.000;0.000;2023-04-20T06:36:23;96182.00;;;16.64;61.11
48774;BME280;34576;0.000;0.000;2023-04-20T06:43:23;96177.75;;;16.63;61.28
48774;BME280;34576;0.000;0.000;2023-04-20T06:50:23;96180.94;;;16.65;61.16
48774;BME280;34576;0.000;0.000;2023-04-20T06:57:24;96171.94;;;16.61;61.25
48774;BME280;34576;0.000;0.000;2023-04-20T07:04:24;96180.69;;;16.61;61.14
48774;BME280;34576;0.000;0.000;2023-04-20T07:11:25;96174.59;;;16.61;61.28
48774;BME280;34576;0.000;0.000;2023-04-20T07:18:25;96177.53;;;16.59;61.52
48774;BME280;34576;0.000;0.000;2023-04-20T07:25:25;96171.19;;;16.55;61.71
48774;BME280;34576;0.000;0.000;2023-04-20T07:32:26;96167.19;;;16.58;61.68
48774;BME280;34576;0.000;0.000;2023-04-20T07:39:26;96162.38;;;16.60;61.69
48774;BME280;34576;0.000;0.000;2023-04-20T07:46:29;96160.00;;;16.58;61.37
48774;BME280;34576;0.000;0.000;2023-04-20T07:53:29;96160.00;;;16.58;61.61
48774;BME280;34576;0.000;0.000;2023-04-20T08:00:30;96164.75;;;16.61;61.37
48774;BME280;34576;0.000;0.000;2023-04-20T08:07:30;96161.06;;;16.57;61.42
48774;BME280;34576;0.000;0.000;2023-04-20T08:14:30;96154.69;;;16.58;61.56
48774;BME280;34576;0.000;0.000;2023-04-20T08:21:31;96143.56;;;16.56;61.64
48774;BME280;34576;0.000;0.000;2023-04-20T08:28:31;96144.34;;;16.56;61.70
48774;BME280;34576;0.000;0.000;2023-04-20T08:35:31;96137.72;;;16.54;61.83
48774;BME280;34576;0.000;0.000;2023-04-20T08:42:32;96140.09;;;16.55;61.87
48774;BME280;34576;0.000;0.000;2023-04-20T08:49:32;96143.31;;;16.52;62.07
48774;BME280;34576;0.000;0.000;2023-04-20T08:56:37;96147.03;;;16.51;62.70
48774;BME280;34576;0.000;0.000;2023-04-20T09:03:40;96160.56;;;16.55;63.80
48774;BME280;34576;0.000;0.000;2023-04-20T09:10:41;96135.34;;;16.52;63.43
48774;BME280;34576;0.000;0.000;2023-04-20T09:17:42;96139.28;;;16.26;64.10
48774;BME280;34576;0.000;0.000;2023-04-20T09:24:42;96128.34;;;15.93;62.91
48774;BME280;34576;0.000;0.000;2023-04-20T09:31:43;96139.06;;;15.72;62.52
48774;BME280;34576;0.000;0.000;2023-04-20T09:38:43;96121.44;;;15.92;61.72
48774;BME280;34576;0.000;0.000;2023-04-20T09:45:43;96123.53;;;16.00;61.78
48774;BME280;34576;0.000;0.000;2023-04-20T09:52:44;96116.09;;;16.36;61.75
48774;BME280;34576;0.000;0.000;2023-04-20T09:59:44;96108.63;;;16.44;61.83
48774;BME280;34576;0.000;0.000;2023-04-20T10:06:52;96116.41;;;16.30;62.13
48774;BME280;34576;0.000;0.000;2023-04-20T10:13:54;96120.28;;;16.43;61.84
48774;BME280;34576;0.000;0.000;2023-04-20T10:21:04;96122.94;;;16.43;61.68
48774;BME280;34576;0.000;0.000;2023-04-20T10:28:06;96117.41;;;16.39;61.64
48774;BME280;34576;0.000;0.000;2023-04-20T10:35:09;96116.56;;;16.44;61.45
48774;BME280;34576;0.000;0.000;2023-04-20T10:42:10;96110.00;;;16.36;61.60
48774;BME280;34576;0.000;0.000;2023-04-20T10:49:10;96124.06;;;16.36;61.49
48774;BME280;34576;0.000;0.000;2023-04-20T10:56:11;96113.16;;;16.38;61.31
48774;BME280;34576;0.000;0.000;2023-04-20T11:03:11;96116.03;;;16.42;61.23
48774;BME280;34576;0.000;0.000;2023-04-20T11:10:11;96112.63;;;16.41;60.93
48774;BME280;34576;0.000;0.000;2023-04-20T11:17:11;96105.69;;;16.45;61.00
48774;BME280;34576;0.000;0.000;2023-04-20T11:24:22;96097.72;;;16.45;60.87
48774;BME280;34576;0.000;0.000;2023-04-20T11:31:23;96103.03;;;16.45;60.85
48774;BME280;34576;0.000;0.000;2023-04-20T11:38:26;96103.59;;;16.42;61.00
48774;BME280;34576;0.000;0.000;2023-04-20T11:45:27;96088.69;;;16.46;60.80
48774;BME280;34576;0.000;0.000;2023-04-20T11:52:31;96086.25;;;16.50;60.94
48774;BME280;34576;0.000;0.000;2023-04-20T11:59:31;96075.59;;;16.55;60.42
48774;BME280;34576;0.000;0.000;2023-04-20T12:06:32;96081.63;;;16.31;58.75
48774;BME280;34576;0.000;0.000;2023-04-20T12:13:32;96081.88;;;16.35;60.47
48774;BME280;34576;0.000;0.000;2023-04-20T12:20:32;96075.44;;;16.41;60.44
48774;BME280;34576;0.000;0.000;2023-04-20T12:27:33;96075.41;;;16.46;60.72
48774;BME280;34576;0.000;0.000;2023-04-20T12:34:33;96072.19;;;16.49;60.84
48774;BME280;34576;0.000;0.000;2023-04-20T12:41:33;96063.94;;;16.51;61.12
48774;BME280;34576;0.000;0.000;2023-04-20T12:48:35;96060.22;;;16.52;61.39
48774;BME280;34576;0.000;0.000;2023-04-20T12:55:35;96048.31;;;16.49;61.79
48774;BME280;34576;0.000;0.000;2023-04-20T13:02:35;96054.97;;;16.47;61.86
48774;BME280;34576;0.000;0.000;2023-04-20T13:09:36;96050.16;;;16.49;61.79
48774;BME280;34576;0.000;0.000;2023-04-20T13:16:36;96064.78;;;16.46;61.82
48774;BME280;34576;0.000;0.000;2023-04-20T13:23:36;96058.19;;;16.44;61.70
48774;BME280;34576;0.000;0.000;2023-04-20T13:30:38;96057.91;;;16.45;61.81
48774;BME280;34576;0.000;0.000;2023-04-20T13:37:39;96035.88;;;16.45;61.76
48774;BME280;34576;0.000;0.000;2023-04-20T13:44:40;96030.28;;;16.46;61.83
48774;BME280;34576;0.000;0.000;2023-04-20T13:51:40;96035.59;;;16.46;61.71
48774;BME280;34576;0.000;0.000;2023-04-20T13:58:40;96032.97;;;16.41;61.94
48774;BME280;34576;0.000;0.000;2023-04-20T14:05:41;96034.56;;;16.42;61.72
48774;BME280;34576;0.000;0.000;2023-04-20T14:12:41;96046.25;;;16.41;61.77
48774;BME280;34576;0.000;0.000;2023-04-20T14:19:42;96049.47;;;16.38;61.82
48774;BME280;34576;0.000;0.000;2023-04-20T14:26:42;96060.09;;;16.38;61.66
48774;BME280;34576;0.000;0.000;2023-04-20T14:33:42;96055.34;;;16.35;61.93
48774;BME280;34576;0.000;0.000;2023-04-20T14:40:43;96063.03;;;16.36;61.76
48774;BME280;34576;0.000;0.000;2023-04-20T14:47:44;96066.47;;;16.37;61.77
48774;BME280;34576;0.000;0.000;2023-04-20T14:54:44;96068.09;;;16.33;61.77
48774;BME280;34576;0.000;0.000;2023-04-20T15:01:44;96064.88;;;16.36;61.91
48774;BME280;34576;0.000;0.000;2023-04-20T15:08:45;96061.16;;;16.37;61.84
48774;BME280;34576;0.000;0.000;2023-04-20T15:15:45;96054.53;;;16.34;61.94
48774;BME280;34576;0.000;0.000;2023-04-20T15:22:45;96074.19;;;16.33;62.09
48774;BME280;34576;0.000;0.000;2023-04-20T15:29:46;96049.50;;;16.33;61.91
48774;BME280;34576;0.000;0.000;2023-04-20T15:36:46;96048.44;;;16.34;61.83
48774;BME280;34576;0.000;0.000;2023-04-20T15:43:46;96078.69;;;16.33;61.86
48774;BME280;34576;0.000;0.000;2023-04-20T15:50:50;96079.22;;;16.35;62.03
48774;BME280;34576;0.000;0.000;2023-04-20T15:57:51;96078.13;;;16.36;61.84
48774;BME280;34576;0.000;0.000;2023-04-20T16:04:56;96072.28;;;16.39;61.84
48774;BME280;34576;0.000;0.000;2023-04-20T16:11:56;96089.22;;;16.43;62.13
48774;BME280;34576;0.000;0.000;2023-04-20T16:18:56;96077.53;;;16.44;61.93
48774;BME280;34576;0.000;0.000;2023-04-20T16:25:57;96094.53;;;16.43;62.24
48774;BME280;34576;0.000;0.000;2023-04-20T16:32:57;96092.97;;;16.42;62.28
48774;BME280;34576;0.000;0.000;2023-04-20T16:39:58;96073.56;;;16.42;62.37
48774;BME280;34576;0.000;0.000;2023-04-20T16:46:59;96070.91;;;16.12;59.21
48774;BME280;34576;0.000;0.000;2023-04-20T16:54:00;96088.09;;;16.20;58.52
48774;BME280;34576;0.000;0.000;2023-04-20T17:01:01;96097.72;;;16.11;58.07
48774;BME280;34576;0.000;0.000;2023-04-20T17:08:01;96097.72;;;16.11;58.01
48774;BME280;34576;0.000;0.000;2023-04-20T17:15:01;96093.28;;;16.01;57.56
48774;BME280;34576;0.000;0.000;2023-04-20T17:22:02;96094.41;;;15.95;57.20
48774;BME280;34576;0.000;0.000;2023-04-20T17:29:02;96096.53;;;15.93;56.95
48774;BME280;34576;0.000;0.000;2023-04-20T17:36:03;96096.78;;;15.96;56.77
48774;BME280;34576;0.000;0.000;2023-04-20T17:43:04;96100.22;;;15.92;56.38
48774;BME280;34576;0.000;0.000;2023-04-20T17:50:04;96099.72;;;15.95;57.61
48774;BME280;34576;0.000;0.000;2023-04-20T17:57:05;96106.75;;;16.10;59.21
48774;BME280;34576;0.000;0.000;2023-04-20T18:04:06;96110.47;;;16.09;58.31
48774;BME280;34576;0.000;0.000;2023-04-20T18:11:07;96101.47;;;16.04;59.54
48774;BME280;34576;0.000;0.000;2023-04-20T18:18:07;96109.16;;;16.06;60.03
48774;BME280;34576;0.000;0.000;2023-04-20T18:25:08;96124.00;;;16.07;60.34
48774;BME280;34576;0.000;0.000;2023-04-20T18:32:08;96129.66;;;16.00;60.48
48774;BME280;34576;0.000;0.000;2023-04-20T18:39:08;96132.28;;;16.00;60.63
48774;BME280;34576;0.000;0.000;2023-04-20T18:46:09;96124.88;;;15.97;60.74
48774;BME280;34576;0.000;0.000;2023-04-20T18:53:09;96145.84;;;15.94;60.99
48774;BME280;34576;0.000;0.000;2023-04-20T19:00:09;96144.81;;;15.95;61.05
48774;BME280;34576;0.000;0.000;2023-04-20T19:07:10;96143.91;;;16.10;61.30
48774;BME280;34576;0.000;0.000;2023-04-20T19:14:11;96153.94;;;16.13;61.67
48774;BME280;34576;0.000;0.000;2023-04-20T19:21:11;96160.38;;;16.01;61.79
48774;BME280;34576;0.000;0.000;2023-04-20T19:28:12;96163.09;;;15.96;61.93
48774;BME280;34576;0.000;0.000;2023-04-20T19:35:12;96166.81;;;15.90;61.92
48774;BME280;34576;0.000;0.000;2023-04-20T19:42:12;96170.91;;;16.17;61.37
48774;BME280;34576;0.000;0.000;2023-04-20T19:49:13;96159.66;;;16.30;60.87
48774;BME280;34576;0.000;0.000;2023-04-20T19:56:14;96164.16;;;16.35;61.15
48774;BME280;34576;0.000;0.000;2023-04-20T20:03:14;96169.97;;;16.37;61.46
48774;BME280;34576;0.000;0.000;2023-04-20T20:10:15;96162.47;;;16.49;61.34
48774;BME280;34576;0.000;0.000;2023-04-20T20:17:15;96163.81;;;16.42;61.93
48774;BME280;34576;0.000;0.000;2023-04-20T20:24:18;96170.78;;;16.37;62.19
48774;BME280;34576;0.000;0.000;2023-04-20T20:31:19;96164.09;;;16.40;62.38
48774;BME280;34576;0.000;0.000;2023-04-20T20:38:20;96168.06;;;16.43;62.41
48774;BME280;34576;0.000;0.000;2023-04-20T20:45:21;96163.03;;;16.46;62.99
48774;BME280;34576;0.000;0.000;2023-04-20T20:52:22;96151.94;;;16.39;63.59
48774;BME280;34576;0.000;0.000;2023-04-20T20:59:22;96160.41;;;16.36;64.03
48774;BME280;34576;0.000;0.000;2023-04-20T21:06:22;96163.06;;;16.36;64.23
48774;BME280;34576;0.000;0.000;2023-04-20T21:13:23;96154.06;;;16.37;64.33
48774;BME280;34576;0.000;0.000;2023-04-20T21:20:23;96157.75;;;16.41;64.29
48774;BME280;34576;0.000;0.000;2023-04-20T21:27:23;96156.19;;;16.35;63.75
48774;BME280;34576;0.000;0.000;2023-04-20T21:34:23;96147.16;;;16.36;64.48
48774;BME280;34576;0.000;0.000;2023-04-20T21:41:24;96148.75;;;16.37;64.61
48774;BME280;34576;0.000;0.000;2023-04-20T21:48:27;96156.69;;;16.42;63.78
48774;BME280;34576;0.000;0.000;2023-04-20T21:55:27;96158.81;;;16.40;64.67
48774;BME280;34576;0.000;0.000;2023-04-20T22:02:27;96166.75;;;16.45;63.41
48774;BME280;34576;0.000;0.000;2023-04-20T22:09:28;96176.00;;;16.48;63.83
48774;BME280;34576;0.000;0.000;2023-04-20T22:16:29;96184.75;;;16.48;62.77
48774;BME280;34576;0.000;0.000;2023-04-20T22:23:32;96182.09;;;16.48;62.82
48774;BME280;34576;0.000;0.000;2023-04-20T22:30:33;96192.72;;;16.48;63.83
48774;BME280;34576;0.000;0.000;2023-04-20T22:37:33;96193.50;;;16.49;62.64
48774;BME280;34576;0.000;0.000;2023-04-20T22:44:34;96197.25;;;16.48;62.90
48774;BME280;34576;0.000;0.000;2023-04-20T22:51:34;96196.97;;;16.49;63.07
48774;BME280;34576;0.000;0.000;2023-04-20T22:58:34;96185.28;;;16.50;63.15
48774;BME280;34576;0.000;0.000;2023-04-20T23:05:35;96182.84;;;16.54;63.35
48774;BME280;34576;0.000;0.000;2023-04-20T23:12:35;96183.63;;;16.54;64.97
48774;BME280;34576;0.000;0.000;2023-04-20T23:19:35;96181.75;;;16.60;62.42
48774;BME280;34576;0.000;0.000;2023-04-20T23:26:37;96175.38;;;16.61;62.49
48774;BME280;34576;0.000;0.000;2023-04-20T23:33:37;96175.91;;;16.63;62.24
48774;BME280;34576;0.000;0.000;2023-04-20T23:40:38;96166.06;;;16.64;62.39
48774;BME280;34576;0.000;0.000;2023-04-20T23:47:38;96165.28;;;16.63;62.35
48774;BME280;34576;0.000;0.000;2023-04-20T23:54:38;96154.38;;;16.65;62.16
